sensor_id;sensor_type;location;lat;lon;timestamp;P1;durP1;ratioP1;P2;durP2;ratioP2
49820;SDS011;36893;52.520;13.450;2023-06-26T00:02:27;1.15;;;1.05;;
49820;SDS011;36893;52.520;13.450;2023-06-26T00:12:28;2.13;;;1.30;;
49820;SDS011;36893;52.520;13.450;2023-06-26T00:22:29;1.25;;;0.70;;
49820;SDS011;36893;52.520;13.450;2023-06-26T00:32:30;1.23;;;0.77;;
49820;SDS011;36893;52.520;13.450;2023-06-26T00:42:31;2.10;;;1.20;;
49820;SDS011;36893;52.520;13.450;2023-06-26T00:52:32;3.17;;;1.20;;
49820;SDS011;36893;52.520;13.450;2023-06-26T01:02:32;3.80;;;1.50;;
49820;SDS011;36893;52.520;13.450;2023-06-26T01:12:33;4.80;;;1.30;;
49820;SDS011;36893;52.520;13.450;2023-06-26T01:22:37;2.42;;;1.13;;
49820;SDS011;36893;52.520;13.450;2023-06-26T01:32:48;2.13;;;1.10;;
49820;SDS011;36893;52.520;13.450;2023-06-26T01:42:50;2.55;;;0.55;;
49820;SDS011;36893;52.520;13.450;2023-06-26T01:52:58;1.30;;;0.70;;
49820;SDS011;36893;52.520;13.450;2023-06-26T02:03:12;2.30;;;1.10;;
49820;SDS011;36893;52.520;13.450;2023-06-26T02:13:13;2.03;;;1.37;;
49820;SDS011;36893;52.520;13.450;2023-06-26T02:23:14;0.83;;;0.60;;
49820;SDS011;36893;52.520;13.450;2023-06-26T02:33:14;3.00;;;1.03;;
49820;SDS011;36893;52.520;13.450;2023-06-26T02:43:15;2.13;;;1.07;;
49820;SDS011;36893;52.520;13.450;2023-06-26T02:53:16;3.03;;;1.00;;
49820;SDS011;36893;52.520;13.450;2023-06-26T03:03:16;1.73;;;1.23;;
49820;SDS011;36893;52.520;13.450;2023-06-26T03:13:17;1.63;;;1.03;;
49820;SDS011;36893;52.520;13.450;2023-06-26T03:23:18;2.07;;;1.37;;
49820;SDS011;36893;52.520;13.450;2023-06-26T03:33:18;2.67;;;1.40;;
49820;SDS011;36893;52.520;13.450;2023-06-26T03:43:19;7.07;;;1.08;;
49820;SDS011;36893;52.520;13.450;2023-06-26T03:53:20;0.77;;;0.63;;
49820;SDS011;36893;52.520;13.450;2023-06-26T04:03:20;2.13;;;1.03;;
49820;SDS011;36893;52.520;13.450;2023-06-26T04:13:21;2.27;;;1.13;;
49820;SDS011;36893;52.520;13.450;2023-06-26T04:23:22;1.40;;;1.00;;
49820;SDS011;36893;52.520;13.450;2023-06-26T04:33:22;2.07;;;1.27;;
49820;SDS011;36893;52.520;13.450;2023-06-26T04:43:24;3.43;;;1.53;;
49820;SDS011;36893;52.520;13.450;2023-06-26T04:53:25;3.10;;;1.10;;
49820;SDS011;36893;52.520;13.450;2023-06-26T05:03:25;3.17;;;1.80;;
49820;SDS011;36893;52.520;13.450;2023-06-26T05:13:26;3.20;;;2.17;;
49820;SDS011;36893;52.520;13.450;2023-06-26T05:23:27;2.53;;;1.70;;
49820;SDS011;36893;52.520;13.450;2023-06-26T05:33:34;1.80;;;1.38;;
49820;SDS011;36893;52.520;13.450;2023-06-26T05:43:37;2.58;;;1.38;;
49820;SDS011;36893;52.520;13.450;2023-06-26T05:53:37;4.33;;;1.93;;
49820;SDS011;36893;52.520;13.450;2023-06-26T06:03:39;4.22;;;2.67;;
49820;SDS011;36893;52.520;13.450;2023-06-26T06:13:40;4.63;;;2.77;;
49820;SDS011;36893;52.520;13.450;2023-06-26T06:23:40;3.73;;;1.80;;
49820;SDS011;36893;52.520;13.450;2023-06-26T06:33:41;5.43;;;2.55;;
49820;SDS011;36893;52.520;13.450;2023-06-26T06:43:42;4.73;;;1.63;;
49820;SDS011;36893;52.520;13.450;2023-06-26T06:53:43;2.97;;;1.48;;
49820;SDS011;36893;52.520;13.450;2023-06-26T07:03:43;1.93;;;1.33;;
49820;SDS011;36893;52.520;13.450;2023-06-26T07:13:44;3.80;;;1.70;;
49820;SDS011;36893;52.520;13.450;2023-06-26T07:23:44;2.77;;;1.70;;
49820;SDS011;36893;52.520;13.450;2023-06-26T07:33:45;5.97;;;2.17;;
49820;SDS011;36893;52.520;13.450;2023-06-26T07:43:46;2.43;;;1.50;;
49820;SDS011;36893;52.520;13.450;2023-06-26T07:53:46;1.70;;;1.13;;
49820;SDS011;36893;52.520;13.450;2023-06-26T08:03:47;1.17;;;0.68;;
49820;SDS011;36893;52.520;13.450;2023-06-26T08:13:48;1.77;;;1.20;;
49820;SDS011;36893;52.520;13.450;2023-06-26T08:23:49;4.40;;;1.93;;
49820;SDS011;36893;52.520;13.450;2023-06-26T08:33:49;3.00;;;1.57;;
49820;SDS011;36893;52.520;13.450;2023-06-26T08:43:50;4.90;;;1.50;;
49820;SDS011;36893;52.520;13.450;2023-06-26T08:53:58;1.58;;;1.33;;
49820;SDS011;36893;52.520;13.450;2023-06-26T09:04:01;2.65;;;1.17;;
49820;SDS011;36893;52.520;13.450;2023-06-26T09:14:03;1.30;;;0.80;;
49820;SDS011;36893;52.520;13.450;2023-06-26T09:24:07;2.70;;;1.00;;
49820;SDS011;36893;52.520;13.450;2023-06-26T09:44:11;1.63;;;0.82;;
49820;SDS011;36893;52.520;13.450;2023-06-26T09:54:15;2.08;;;1.40;;
49820;SDS011;36893;52.520;13.450;2023-06-26T10:04:17;1.52;;;1.05;;
49820;SDS011;36893;52.520;13.450;2023-06-26T10:14:18;2.03;;;0.98;;
49820;SDS011;36893;52.520;13.450;2023-06-26T10:24:22;2.80;;;1.35;;
49820;SDS011;36893;52.520;13.450;2023-06-26T10:34:24;1.50;;;0.82;;
49820;SDS011;36893;52.520;13.450;2023-06-26T10:44:25;1.25;;;1.02;;
49820;SDS011;36893;52.520;13.450;2023-06-26T10:54:28;0.70;;;0.63;;
49820;SDS011;36893;52.520;13.450;2023-06-26T11:14:44;1.33;;;0.77;;
49820;SDS011;36893;52.520;13.450;2023-06-26T11:24:45;2.07;;;1.13;;
49820;SDS011;36893;52.520;13.450;2023-06-26T11:34:47;3.75;;;1.05;;
49820;SDS011;36893;52.520;13.450;2023-06-26T11:44:48;1.03;;;0.80;;
49820;SDS011;36893;52.520;13.450;2023-06-26T11:54:49;1.23;;;0.88;;
49820;SDS011;36893;52.520;13.450;2023-06-26T12:04:49;3.23;;;0.90;;
49820;SDS011;36893;52.520;13.450;2023-06-26T12:14:51;2.28;;;1.05;;
49820;SDS011;36893;52.520;13.450;2023-06-26T12:34:56;1.13;;;0.73;;
49820;SDS011;36893;52.520;13.450;2023-06-26T12:44:58;3.20;;;1.02;;
49820;SDS011;36893;52.520;13.450;2023-06-26T12:54:59;0.90;;;0.55;;
49820;SDS011;36893;52.520;13.450;2023-06-26T13:04:59;2.10;;;1.30;;
49820;SDS011;36893;52.520;13.450;2023-06-26T13:15:00;1.10;;;0.90;;
49820;SDS011;36893;52.520;13.450;2023-06-26T13:25:00;1.02;;;0.75;;
49820;SDS011;36893;52.520;13.450;2023-06-26T13:35:01;2.80;;;1.17;;
49820;SDS011;36893;52.520;13.450;2023-06-26T13:45:03;1.40;;;0.53;;
49820;SDS011;36893;52.520;13.450;2023-06-26T13:55:04;0.73;;;0.73;;
49820;SDS011;36893;52.520;13.450;2023-06-26T14:05:05;0.97;;;0.83;;
49820;SDS011;36893;52.520;13.450;2023-06-26T14:15:06;0.77;;;0.47;;
49820;SDS011;36893;52.520;13.450;2023-06-26T14:25:08;1.40;;;1.03;;
49820;SDS011;36893;52.520;13.450;2023-06-26T14:35:13;3.58;;;1.13;;
49820;SDS011;36893;52.520;13.450;2023-06-26T14:45:13;2.13;;;0.90;;
49820;SDS011;36893;52.520;13.450;2023-06-26T14:55:14;0.50;;;0.50;;
49820;SDS011;36893;52.520;13.450;2023-06-26T15:05:15;2.50;;;1.13;;
49820;SDS011;36893;52.520;13.450;2023-06-26T15:15:15;4.80;;;1.40;;
49820;SDS011;36893;52.520;13.450;2023-06-26T15:25:17;2.17;;;1.08;;
49820;SDS011;36893;52.520;13.450;2023-06-26T15:35:18;2.47;;;1.40;;
49820;SDS011;36893;52.520;13.450;2023-06-26T15:45:18;3.03;;;1.13;;
49820;SDS011;36893;52.520;13.450;2023-06-26T15:55:22;2.58;;;1.08;;
49820;SDS011;36893;52.520;13.450;2023-06-26T16:05:22;2.13;;;1.13;;
49820;SDS011;36893;52.520;13.450;2023-06-26T16:15:23;2.90;;;1.40;;
49820;SDS011;36893;52.520;13.450;2023-06-26T16:25:24;2.50;;;1.27;;
49820;SDS011;36893;52.520;13.450;2023-06-26T16:35:27;3.10;;;1.90;;
49820;SDS011;36893;52.520;13.450;2023-06-26T16:45:33;2.25;;;1.08;;
49820;SDS011;36893;52.520;13.450;2023-06-26T16:55:34;1.17;;;1.08;;
49820;SDS011;36893;52.520;13.450;2023-06-26T17:05:35;2.17;;;1.43;;
49820;SDS011;36893;52.520;13.450;2023-06-26T17:15:36;2.73;;;1.97;;
49820;SDS011;36893;52.520;13.450;2023-06-26T17:25:37;1.23;;;1.02;;
49820;SDS011;36893;52.520;13.450;2023-06-26T17:35:37;1.73;;;1.13;;
49820;SDS011;36893;52.520;13.450;2023-06-26T17:45:38;1.83;;;1.30;;
49820;SDS011;36893;52.520;13.450;2023-06-26T17:55:39;3.00;;;1.10;;
49820;SDS011;36893;52.520;13.450;2023-06-26T18:05:39;2.33;;;1.17;;
49820;SDS011;36893;52.520;13.450;2023-06-26T18:15:40;2.73;;;1.30;;
49820;SDS011;36893;52.520;13.450;2023-06-26T18:25:40;2.47;;;1.20;;
49820;SDS011;36893;52.520;13.450;2023-06-26T18:35:41;5.73;;;1.70;;
49820;SDS011;36893;52.520;13.450;2023-06-26T18:45:42;1.67;;;1.13;;
49820;SDS011;36893;52.520;13.450;2023-06-26T18:55:43;2.42;;;0.95;;
49820;SDS011;36893;52.520;13.450;2023-06-26T19:05:43;2.77;;;1.60;;
49820;SDS011;36893;52.520;13.450;2023-06-26T19:15:44;5.07;;;1.70;;
49820;SDS011;36893;52.520;13.450;2023-06-26T19:25:45;2.30;;;1.20;;
49820;SDS011;36893;52.520;13.450;2023-06-26T19:35:46;1.07;;;0.70;;
49820;SDS011;36893;52.520;13.450;2023-06-26T19:45:47;1.57;;;0.73;;
49820;SDS011;36893;52.520;13.450;2023-06-26T19:55:47;1.77;;;0.60;;
49820;SDS011;36893;52.520;13.450;2023-06-26T20:05:48;2.92;;;0.63;;
49820;SDS011;36893;52.520;13.450;2023-06-26T20:15:50;0.50;;;0.30;;
49820;SDS011;36893;52.520;13.450;2023-06-26T20:25:50;0.10;;;0.10;;
49820;SDS011;36893;52.520;13.450;2023-06-26T20:35:51;0.77;;;0.50;;
49820;SDS011;36893;52.520;13.450;2023-06-26T20:45:52;0.50;;;0.10;;
49820;SDS011;36893;52.520;13.450;2023-06-26T20:55:53;3.90;;;0.50;;
49820;SDS011;36893;52.520;13.450;2023-06-26T21:05:53;1.08;;;0.43;;
49820;SDS011;36893;52.520;13.450;2023-06-26T21:15:54;6.10;;;1.13;;
49820;SDS011;36893;52.520;13.450;2023-06-26T21:25:55;6.78;;;0.85;;
49820;SDS011;36893;52.520;13.450;2023-06-26T21:35:56;3.50;;;0.60;;
49820;SDS011;36893;52.520;13.450;2023-06-26T21:45:57;5.03;;;0.60;;
49820;SDS011;36893;52.520;13.450;2023-06-26T21:55:57;1.27;;;0.50;;
49820;SDS011;36893;52.520;13.450;2023-06-26T22:05:58;0.30;;;0.30;;
49820;SDS011;36893;52.520;13.450;2023-06-26T22:15:59;0.43;;;0.17;;
49820;SDS011;36893;52.520;13.450;2023-06-26T22:25:59;0.10;;;0.10;;
49820;SDS011;36893;52.520;13.450;2023-06-26T22:36:00;1.33;;;0.60;;
49820;SDS011;36893;52.520;13.450;2023-06-26T22:46:00;0.80;;;0.50;;
49820;SDS011;36893;52.520;13.450;2023-06-26T22:56:01;0.20;;;0.20;;
49820;SDS011;36893;52.520;13.450;2023-06-26T23:06:02;0.73;;;0.43;;
49820;SDS011;36893;52.520;13.450;2023-06-26T23:16:04;1.87;;;0.47;;
49820;SDS011;36893;52.520;13.450;2023-06-26T23:26:04;0.10;;;0.10;;
49820;SDS011;36893;52.520;13.450;2023-06-26T23:36:06;0.80;;;0.30;;
49820;SDS011;36893;52.520;13.450;2023-06-26T23:46:09;0.60;;;0.40;;
49820;SDS011;36893;52.520;13.450;2023-06-26T23:56:13;1.88;;;0.68;;
